Time;durP1;ratioP1;P1;durP2;ratioP2;P2;SDS_P1;SDS_P2;PMS_P1;PMS_P2;Temp;Humidity;BMP_temperature;BMP_pressure;BME280_temperature;BME280_humidity;BME280_pressure;Samples;Min_cycle;Max_cycle;Signal;HPM_P1;HPM_P2
2023/08/09 00:02:08;;;;;;;9.10;6.05;;;14.70;99.90;;;;;;5058000;28;20037;-60
2023/08/09 00:04:34;;;;;;;8.60;5.70;;;14.70;99.90;;;;;;5056946;28;20057;-60
2023/08/09 00:06:59;;;;;;;12.23;6.85;;;14.70;99.90;;;;;;5055889;28;20079;-60
2023/08/09 00:09:25;;;;;;;10.15;6.03;;;14.70;99.90;;;;;;5055862;28;20494;-59
2023/08/09 00:11:51;;;;;;;9.85;5.82;;;14.80;99.90;;;;;;5056929;28;20088;-60
2023/08/09 00:14:17;;;;;;;9.45;6.20;;;14.80;99.90;;;;;;5057677;28;20037;-60
2023/08/09 00:16:46;;;;;;;12.65;6.82;;;14.80;99.90;;;;;;5057593;28;20907;-60
2023/08/09 00:19:11;;;;;;;13.20;6.50;;;14.70;99.90;;;;;;5062119;28;20044;-60
2023/08/09 00:21:37;;;;;;;11.13;6.63;;;14.70;99.90;;;;;;5060333;28;20091;-60
2023/08/09 00:24:04;;;;;;;10.82;7.18;;;14.80;99.90;;;;;;5061324;28;20064;-60
2023/08/09 00:26:30;;;;;;;8.70;6.15;;;14.80;99.90;;;;;;5060776;28;20041;-60
2023/08/09 00:28:56;;;;;;;10.75;6.63;;;14.70;99.90;;;;;;5059111;28;20049;-60
2023/08/09 00:31:21;;;;;;;11.02;7.03;;;14.70;99.90;;;;;;5059954;28;20088;-60
2023/08/09 00:33:47;;;;;;;13.23;6.70;;;14.80;99.90;;;;;;5059996;28;20055;-60
2023/08/09 00:36:15;;;;;;;14.93;7.22;;;14.70;99.90;;;;;;5059546;28;20117;-60
2023/08/09 00:38:41;;;;;;;12.98;7.53;;;14.80;99.90;;;;;;5060305;28;20082;-60
2023/08/09 00:41:07;;;;;;;10.88;7.32;;;14.80;99.90;;;;;;5060640;28;20092;-60
2023/08/09 00:43:33;;;;;;;12.48;7.32;;;14.80;99.90;;;;;;5060592;28;20102;-60
2023/08/09 00:45:59;;;;;;;12.00;7.07;;;14.70;99.90;;;;;;5059665;28;20121;-60
2023/08/09 00:48:25;;;;;;;11.82;7.70;;;14.70;99.90;;;;;;5060544;28;20045;-60
2023/08/09 00:50:52;;;;;;;12.55;8.20;;;14.70;99.90;;;;;;5059350;28;20107;-60
2023/08/09 00:53:21;;;;;;;15.20;8.00;;;14.70;99.90;;;;;;5060936;28;20052;-59
2023/08/09 00:55:47;;;;;;;18.42;7.63;;;14.70;99.90;;;;;;5059576;28;20931;-60
2023/08/09 00:58:16;;;;;;;10.60;7.85;;;14.70;99.90;;;;;;5060251;28;20041;-60
2023/08/09 01:00:41;;;;;;;12.52;7.75;;;14.70;99.90;;;;;;5060183;28;20083;-60
2023/08/09 01:03:07;;;;;;;10.60;7.40;;;14.70;99.90;;;;;;5059499;28;20036;-60
2023/08/09 01:05:45;;;;;;;12.30;7.20;;;14.70;99.90;;;;;;5059807;28;20044;-59
2023/08/09 01:08:27;;;;;;;12.30;7.57;;;14.70;99.90;;;;;;5059158;28;20056;-60
2023/08/09 01:11:11;;;;;;;12.13;8.18;;;14.70;99.90;;;;;;5058982;28;20060;-59
2023/08/09 01:13:39;;;;;;;12.27;7.32;;;14.70;99.90;;;;;;5059998;28;20123;-60
2023/08/09 01:16:07;;;;;;;15.27;7.80;;;14.70;99.90;;;;;;5059248;28;20044;-60
2023/08/09 01:18:35;;;;;;;12.85;7.50;;;14.60;99.90;;;;;;5058816;28;20049;-59
2023/08/09 01:21:02;;;;;;;13.15;8.43;;;14.60;99.90;;;;;;5057388;28;20060;-60
2023/08/09 01:23:36;;;;;;;13.38;8.05;;;14.60;99.90;;;;;;5060370;28;20044;-59
2023/08/09 01:26:04;;;;;;;14.68;8.68;;;14.60;99.90;;;;;;5059065;28;20172;-60
2023/08/09 01:28:30;;;;;;;15.32;8.65;;;14.60;99.90;;;;;;5058941;28;20056;-59
2023/08/09 01:30:57;;;;;;;14.75;9.13;;;14.60;99.90;;;;;;5058290;28;20068;-60
2023/08/09 01:33:26;;;;;;;12.95;8.20;;;14.50;99.90;;;;;;5057848;28;20144;-59
2023/08/09 01:36:17;;;;;;;14.20;9.10;;;14.50;99.90;;;;;;5059718;28;20048;-60
2023/08/09 01:38:53;;;;;;;12.00;8.20;;;14.50;99.90;;;;;;5067177;28;20052;-60
2023/08/09 01:41:20;;;;;;;12.70;8.98;;;14.50;99.90;;;;;;5079662;28;20579;-60
2023/08/09 01:43:46;;;;;;;16.67;9.40;;;14.40;99.90;;;;;;5078262;28;20105;-60
2023/08/09 01:46:14;;;;;;;17.17;10.48;;;14.40;99.90;;;;;;5077414;28;20067;-60
2023/08/09 01:48:40;;;;;;;12.50;9.10;;;14.40;99.90;;;;;;5079592;28;20060;-59
2023/08/09 01:51:07;;;;;;;19.73;9.73;;;14.40;99.90;;;;;;5086033;28;20051;-60
2023/08/09 01:53:33;;;;;;;13.93;9.07;;;14.40;99.90;;;;;;5100435;28;20085;-60
2023/08/09 01:55:59;;;;;;;14.80;9.38;;;14.40;99.90;;;;;;5098055;28;20067;-60
2023/08/09 01:58:25;;;;;;;14.75;9.38;;;14.40;99.90;;;;;;5099488;28;20072;-60
2023/08/09 02:00:52;;;;;;;12.80;8.75;;;14.40;99.90;;;;;;5099739;28;20091;-59
2023/08/09 02:03:18;;;;;;;15.27;10.10;;;14.30;99.90;;;;;;5098766;28;20054;-60
2023/08/09 02:05:43;;;;;;;14.77;10.38;;;14.30;99.90;;;;;;5099869;28;20091;-59
2023/08/09 02:08:09;;;;;;;14.55;9.52;;;14.30;99.90;;;;;;5098589;28;20048;-60
2023/08/09 02:10:35;;;;;;;13.88;10.10;;;14.30;99.90;;;;;;5100084;28;20107;-60
2023/08/09 02:13:01;;;;;;;19.48;10.38;;;14.30;99.90;;;;;;5098671;28;20113;-60
2023/08/09 02:15:26;;;;;;;15.77;10.02;;;14.30;99.90;;;;;;5098862;28;20055;-60
2023/08/09 02:17:52;;;;;;;14.77;10.15;;;14.30;99.90;;;;;;5098990;28;20046;-59
2023/08/09 02:20:21;;;;;;;14.57;10.23;;;14.30;99.90;;;;;;5098251;28;20043;-60
2023/08/09 02:22:48;;;;;;;14.45;10.43;;;14.30;99.90;;;;;;5098028;28;20365;-59
2023/08/09 02:25:14;;;;;;;14.85;9.85;;;14.30;99.90;;;;;;5097636;28;20610;-59
2023/08/09 02:27:40;;;;;;;15.00;10.57;;;14.30;99.90;;;;;;5098240;28;20067;-59
2023/08/09 02:30:07;;;;;;;14.48;10.52;;;14.30;99.90;;;;;;5098258;28;20537;-59
2023/08/09 02:32:34;;;;;;;15.88;11.30;;;14.30;99.90;;;;;;5098563;28;20508;-60
2023/08/09 02:35:00;;;;;;;14.57;11.07;;;14.30;99.90;;;;;;5088069;28;20084;-69
2023/08/09 02:37:27;;;;;;;15.18;10.48;;;14.30;99.90;;;;;;5060023;28;20059;-68
2023/08/09 02:39:53;;;;;;;16.13;10.63;;;14.30;99.90;;;;;;5076929;28;20044;-70
2023/08/09 02:42:19;;;;;;;16.77;10.85;;;14.30;99.90;;;;;;5077035;28;20052;-69
2023/08/09 02:44:45;;;;;;;18.17;11.65;;;14.30;99.90;;;;;;5061264;28;20074;-68
2023/08/09 02:47:11;;;;;;;15.38;10.95;;;14.30;99.90;;;;;;5076941;28;20080;-69
2023/08/09 02:49:37;;;;;;;13.70;10.30;;;14.20;99.90;;;;;;5079084;28;20060;-69
2023/08/09 02:52:03;;;;;;;14.48;10.27;;;14.30;99.90;;;;;;5060889;28;20044;-68
2023/08/09 02:54:29;;;;;;;16.70;10.90;;;14.20;99.90;;;;;;5078186;28;20061;-69
2023/08/09 02:56:55;;;;;;;16.40;10.85;;;14.20;99.90;;;;;;5078872;28;20055;-69
2023/08/09 02:59:21;;;;;;;16.63;10.63;;;14.30;99.90;;;;;;5095735;28;20205;-69
2023/08/09 03:01:46;;;;;;;17.20;11.27;;;14.20;99.90;;;;;;5098032;28;20094;-69
2023/08/09 03:04:12;;;;;;;14.10;11.13;;;14.20;99.90;;;;;;5096943;28;20061;-68
2023/08/09 03:06:38;;;;;;;15.60;11.18;;;14.20;99.90;;;;;;5099068;28;20052;-70
2023/08/09 03:09:04;;;;;;;13.10;9.70;;;14.20;99.90;;;;;;5097362;28;20629;-69
2023/08/09 03:11:30;;;;;;;12.60;9.93;;;14.20;99.90;;;;;;5096951;28;20054;-69
2023/08/09 03:13:56;;;;;;;14.77;10.70;;;14.20;99.90;;;;;;5080584;28;20130;-69
2023/08/09 03:16:22;;;;;;;14.13;10.32;;;14.10;99.90;;;;;;5096567;28;20070;-70
2023/08/09 03:18:48;;;;;;;13.63;10.15;;;14.10;99.90;;;;;;5080618;28;20044;-69
2023/08/09 03:21:15;;;;;;;14.60;10.45;;;14.10;99.90;;;;;;5096750;28;20036;-71
2023/08/09 03:23:41;;;;;;;14.05;9.77;;;14.10;99.90;;;;;;5098860;28;20047;-69
2023/08/09 03:26:07;;;;;;;12.75;9.52;;;14.10;99.90;;;;;;5098086;28;20058;-69
2023/08/09 03:28:33;;;;;;;13.40;10.07;;;14.10;99.90;;;;;;5098133;28;20044;-68
2023/08/09 03:30:59;;;;;;;14.60;10.95;;;14.00;99.90;;;;;;5097034;28;20043;-70
2023/08/09 03:33:26;;;;;;;13.25;10.23;;;14.00;99.90;;;;;;5097923;28;20044;-69
2023/08/09 03:35:52;;;;;;;13.88;10.10;;;14.00;99.90;;;;;;5098762;28;20052;-70
2023/08/09 03:38:17;;;;;;;14.32;10.52;;;14.00;99.90;;;;;;5079725;28;20036;-69
2023/08/09 03:40:43;;;;;;;16.17;10.20;;;14.00;99.90;;;;;;5097364;28;20097;-69
2023/08/09 03:43:09;;;;;;;12.32;9.68;;;14.00;99.90;;;;;;5096806;28;20044;-69
2023/08/09 03:45:35;;;;;;;13.07;9.82;;;14.00;99.90;;;;;;5097781;28;20115;-69
2023/08/09 03:48:00;;;;;;;13.40;10.52;;;13.90;99.90;;;;;;5097100;28;20048;-68
2023/08/09 03:50:27;;;;;;;17.60;10.85;;;14.00;99.90;;;;;;5097272;28;20138;-70
2023/08/09 03:52:53;;;;;;;14.13;9.32;;;14.00;99.90;;;;;;5101489;28;20040;-69
2023/08/09 03:55:19;;;;;;;13.48;10.10;;;13.90;99.90;;;;;;5100179;28;20051;-69
2023/08/09 03:57:45;;;;;;;14.18;9.73;;;13.90;99.90;;;;;;5102628;28;20117;-69
2023/08/09 04:00:17;;;;;;;13.60;9.60;;;13.90;99.90;;;;;;5083271;28;20114;-69
2023/08/09 04:02:47;;;;;;;13.15;9.85;;;13.90;99.90;;;;;;5100315;28;20127;-69
2023/08/09 04:05:15;;;;;;;11.77;9.25;;;13.90;99.90;;;;;;5102032;28;20067;-69
2023/08/09 04:07:42;;;;;;;12.75;9.57;;;13.90;99.90;;;;;;5083358;28;20043;-69
2023/08/09 04:10:09;;;;;;;12.88;10.05;;;13.90;99.90;;;;;;5102285;28;20043;-69
2023/08/09 04:12:35;;;;;;;13.07;9.48;;;13.90;99.90;;;;;;5099811;28;20074;-69
2023/08/09 04:15:04;;;;;;;12.50;9.23;;;13.80;99.90;;;;;;5100341;28;20058;-69
2023/08/09 04:17:31;;;;;;;10.13;8.23;;;13.80;99.90;;;;;;5101433;28;20597;-70
2023/08/09 04:19:57;;;;;;;9.98;8.43;;;13.80;99.90;;;;;;5101315;28;20052;-70
2023/08/09 04:22:24;;;;;;;11.15;8.30;;;13.80;99.90;;;;;;5083151;28;20099;-69
2023/08/09 04:24:50;;;;;;;13.45;8.50;;;13.80;99.90;;;;;;5100622;28;20047;-69
2023/08/09 04:27:16;;;;;;;12.20;9.02;;;13.70;99.90;;;;;;5101941;28;20077;-69
2023/08/09 04:29:42;;;;;;;14.07;8.57;;;13.70;99.90;;;;;;5100567;28;20563;-71
2023/08/09 04:32:08;;;;;;;11.38;8.88;;;13.80;99.90;;;;;;5083402;28;20068;-69
2023/08/09 04:34:33;;;;;;;14.02;8.38;;;13.80;99.90;;;;;;5099649;28;20051;-68
2023/08/09 04:36:59;;;;;;;10.63;7.75;;;13.80;99.90;;;;;;5099727;28;20113;-66
2023/08/09 04:39:25;;;;;;;11.00;8.68;;;13.70;99.90;;;;;;5082671;28;20483;-66
2023/08/09 04:41:51;;;;;;;10.30;8.23;;;13.70;99.90;;;;;;5099377;28;20040;-67
2023/08/09 04:44:17;;;;;;;11.13;8.57;;;13.70;99.90;;;;;;5101253;28;20040;-68
2023/08/09 04:46:43;;;;;;;12.23;9.05;;;13.70;99.90;;;;;;5082171;28;20138;-68
2023/08/09 04:49:09;;;;;;;10.77;8.55;;;13.70;99.90;;;;;;5101621;28;20063;-67
2023/08/09 04:51:34;;;;;;;9.93;8.10;;;13.70;99.90;;;;;;5100790;28;20044;-69
2023/08/09 04:54:00;;;;;;;11.13;8.80;;;13.70;99.90;;;;;;5100778;28;20093;-68
2023/08/09 04:56:26;;;;;;;10.50;8.82;;;13.70;99.90;;;;;;5101285;28;20098;-68
2023/08/09 04:58:52;;;;;;;10.25;8.40;;;13.70;99.90;;;;;;5099771;28;20078;-67
2023/08/09 05:01:18;;;;;;;11.80;8.98;;;13.70;99.90;;;;;;5100054;28;20698;-68
2023/08/09 05:03:44;;;;;;;10.15;8.65;;;13.70;99.90;;;;;;5099620;28;20132;-68
2023/08/09 05:06:09;;;;;;;11.82;8.85;;;13.80;99.90;;;;;;5083335;28;20048;-68
2023/08/09 05:08:35;;;;;;;11.80;9.07;;;13.70;99.90;;;;;;5099225;28;20039;-67
2023/08/09 05:11:01;;;;;;;11.45;8.85;;;13.80;99.90;;;;;;5099741;28;20059;-68
2023/08/09 05:13:27;;;;;;;12.35;9.00;;;13.80;99.90;;;;;;5099369;28;20040;-67
2023/08/09 05:15:52;;;;;;;12.95;9.20;;;13.80;99.90;;;;;;5098953;28;20047;-69
2023/08/09 05:18:18;;;;;;;13.88;9.73;;;13.80;99.90;;;;;;5101102;28;20521;-68
2023/08/09 05:20:45;;;;;;;11.93;8.98;;;13.80;99.90;;;;;;5081966;28;20085;-69
2023/08/09 05:23:11;;;;;;;11.00;9.25;;;13.80;99.90;;;;;;5082976;28;20047;-68
2023/08/09 05:25:36;;;;;;;11.25;9.00;;;13.80;99.90;;;;;;5098541;28;20100;-69
2023/08/09 05:28:02;;;;;;;11.52;9.43;;;13.80;99.90;;;;;;5100810;28;20435;-67
2023/08/09 05:30:29;;;;;;;10.32;8.95;;;13.80;99.90;;;;;;5099466;28;20089;-69
2023/08/09 05:32:54;;;;;;;11.40;8.73;;;13.80;99.90;;;;;;5100091;28;20078;-67
2023/08/09 05:35:20;;;;;;;10.57;7.95;;;13.90;99.90;;;;;;5100756;28;20044;-68
2023/08/09 05:37:46;;;;;;;8.95;8.02;;;13.90;99.90;;;;;;5098326;28;20048;-67
2023/08/09 05:40:13;;;;;;;9.23;7.75;;;13.90;99.90;;;;;;5099152;28;20113;-68
2023/08/09 05:42:40;;;;;;;8.38;7.40;;;14.00;99.90;;;;;;5099422;28;20076;-69
2023/08/09 05:45:06;;;;;;;8.82;7.53;;;14.10;99.90;;;;;;5098809;28;20055;-67
2023/08/09 05:47:32;;;;;;;9.32;7.90;;;14.20;99.90;;;;;;5100056;28;20055;-68
2023/08/09 05:49:58;;;;;;;9.73;7.43;;;14.10;99.90;;;;;;5099724;28;20039;-68
2023/08/09 05:52:23;;;;;;;9.65;7.03;;;14.20;99.90;;;;;;5099951;28;20055;-68
2023/08/09 05:54:49;;;;;;;10.27;7.90;;;14.20;99.90;;;;;;5099492;28;20082;-68
2023/08/09 05:57:15;;;;;;;8.60;7.70;;;14.30;99.90;;;;;;5098741;28;20073;-67
2023/08/09 05:59:41;;;;;;;9.13;8.05;;;14.30;99.90;;;;;;5081291;28;20101;-70
2023/08/09 06:02:07;;;;;;;9.00;7.22;;;14.40;99.90;;;;;;5082220;28;20055;-69
2023/08/09 06:04:33;;;;;;;9.82;6.60;;;14.40;99.90;;;;;;5099712;28;20055;-68
2023/08/09 06:06:59;;;;;;;8.65;7.32;;;14.60;99.90;;;;;;5099719;28;20081;-69
2023/08/09 06:09:25;;;;;;;7.70;6.20;;;14.60;99.90;;;;;;5075342;28;20048;-69
2023/08/09 06:11:51;;;;;;;8.73;7.15;;;14.80;99.90;;;;;;5077353;28;20053;-70
2023/08/09 06:14:17;;;;;;;7.78;6.90;;;14.80;99.90;;;;;;5077071;28;20047;-70
2023/08/09 06:16:45;;;;;;;8.18;6.63;;;14.80;99.90;;;;;;5077105;28;20131;-68
2023/08/09 06:19:12;;;;;;;9.10;6.82;;;14.90;99.90;;;;;;5078562;28;20055;-68
2023/08/09 06:21:38;;;;;;;7.65;6.50;;;14.90;99.90;;;;;;5077592;28;20052;-69
2023/08/09 06:24:05;;;;;;;8.27;7.00;;;15.00;99.90;;;;;;5077815;28;20036;-68
2023/08/09 06:26:32;;;;;;;6.95;6.25;;;15.10;99.90;;;;;;5077429;28;20170;-69
2023/08/09 06:28:58;;;;;;;11.32;7.18;;;15.20;99.90;;;;;;5077323;28;20067;-69
2023/08/09 06:31:25;;;;;;;6.60;5.88;;;15.20;99.90;;;;;;5080582;28;20439;-72
2023/08/09 06:33:53;;;;;;;8.10;6.35;;;15.20;99.90;;;;;;5090201;28;20070;-72
2023/08/09 06:36:19;;;;;;;7.63;6.85;;;15.20;99.90;;;;;;5078441;28;20040;-72
2023/08/09 06:38:45;;;;;;;9.02;6.30;;;15.20;99.90;;;;;;5077681;28;20044;-71
2023/08/09 06:41:11;;;;;;;6.80;5.80;;;15.30;99.90;;;;;;5059969;28;20040;-70
2023/08/09 06:43:37;;;;;;;7.07;5.30;;;15.30;99.90;;;;;;5078468;28;20064;-68
2023/08/09 06:46:03;;;;;;;6.82;6.05;;;15.30;99.90;;;;;;5078079;28;20905;-70
2023/08/09 06:48:31;;;;;;;6.07;5.47;;;15.40;99.90;;;;;;5078981;28;20082;-69
2023/08/09 06:51:00;;;;;;;6.15;5.40;;;15.40;99.90;;;;;;5076740;28;20102;-70
2023/08/09 06:53:27;;;;;;;6.57;5.75;;;15.40;99.90;;;;;;5077664;28;20042;-70
2023/08/09 06:55:53;;;;;;;6.40;5.53;;;15.60;99.90;;;;;;5078370;28;20056;-72
2023/08/09 06:58:19;;;;;;;6.88;5.63;;;15.60;99.90;;;;;;5078604;28;20086;-69
2023/08/09 07:00:46;;;;;;;5.22;4.65;;;15.70;99.90;;;;;;5078789;28;20051;-70
2023/08/09 07:03:12;;;;;;;6.00;5.40;;;15.70;99.90;;;;;;5078187;28;20135;-70
2023/08/09 07:05:38;;;;;;;7.03;5.93;;;15.70;99.90;;;;;;5077432;28;20576;-69
2023/08/09 07:08:04;;;;;;;8.02;5.22;;;15.60;99.90;;;;;;5077694;28;20055;-69
2023/08/09 07:10:30;;;;;;;9.00;6.35;;;15.70;99.90;;;;;;5078833;28;20051;-70
2023/08/09 07:12:56;;;;;;;6.28;5.40;;;15.80;99.90;;;;;;5077915;28;20041;-71
2023/08/09 07:15:23;;;;;;;9.85;6.13;;;15.90;99.90;;;;;;5078005;28;20074;-70
2023/08/09 07:17:48;;;;;;;6.32;5.63;;;16.00;99.90;;;;;;5076941;28;20041;-70
2023/08/09 07:20:14;;;;;;;6.90;5.47;;;16.10;99.90;;;;;;5077688;28;20045;-70
2023/08/09 07:22:41;;;;;;;6.40;5.68;;;16.10;99.90;;;;;;5078218;28;20044;-69
2023/08/09 07:25:08;;;;;;;7.13;5.70;;;16.10;99.90;;;;;;5076703;28;20049;-70
2023/08/09 07:27:34;;;;;;;6.43;5.60;;;16.20;99.90;;;;;;5077295;28;20049;-68
2023/08/09 07:30:00;;;;;;;7.25;5.20;;;16.30;99.90;;;;;;5077465;28;20077;-66
2023/08/09 07:32:26;;;;;;;10.60;6.10;;;16.30;99.90;;;;;;5077628;28;20124;-64
2023/08/09 07:34:52;;;;;;;6.47;5.57;;;16.20;99.90;;;;;;5076302;28;20060;-63
2023/08/09 07:37:20;;;;;;;7.13;5.82;;;16.20;99.90;;;;;;5075780;28;20565;-65
2023/08/09 07:39:46;;;;;;;7.80;5.93;;;16.20;99.90;;;;;;5076669;28;20052;-64
2023/08/09 07:42:11;;;;;;;7.13;5.78;;;16.20;99.90;;;;;;5059143;28;20168;-64
2023/08/09 07:44:37;;;;;;;6.78;5.63;;;16.10;99.90;;;;;;5078066;28;20048;-63
2023/08/09 07:47:03;;;;;;;8.98;5.57;;;16.00;99.90;;;;;;5087413;22;20083;-63
2023/08/09 07:49:29;;;;;;;5.82;5.22;;;16.00;99.90;;;;;;5039560;28;20037;-64
2023/08/09 07:51:56;;;;;;;5.90;5.05;;;16.10;99.90;;;;;;5057966;28;20048;-63
2023/08/09 07:54:21;;;;;;;7.40;4.80;;;16.20;99.90;;;;;;5058501;28;20057;-64
2023/08/09 07:56:47;;;;;;;6.45;5.20;;;16.40;99.90;;;;;;5058729;28;20068;-64
2023/08/09 07:59:13;;;;;;;7.45;4.78;;;16.50;99.90;;;;;;5058327;28;20078;-63
2023/08/09 08:01:40;;;;;;;6.05;5.15;;;16.50;99.90;;;;;;5057017;28;20049;-63
2023/08/09 08:04:06;;;;;;;8.07;5.22;;;16.50;99.90;;;;;;5059080;28;20625;-63
2023/08/09 08:06:32;;;;;;;8.00;5.32;;;16.50;99.90;;;;;;5057086;28;20057;-63
2023/08/09 08:08:57;;;;;;;7.38;5.35;;;16.50;99.90;;;;;;5059509;28;20052;-62
2023/08/09 08:11:23;;;;;;;6.82;5.18;;;16.50;99.90;;;;;;5039989;28;20056;-63
2023/08/09 08:13:49;;;;;;;9.13;5.03;;;16.60;99.90;;;;;;5058970;28;20159;-62
2023/08/09 08:16:15;;;;;;;6.30;4.68;;;16.60;99.90;;;;;;5057781;28;20070;-64
2023/08/09 08:18:41;;;;;;;8.00;4.82;;;16.70;99.90;;;;;;5057867;28;20033;-62
2023/08/09 08:21:08;;;;;;;5.70;4.13;;;16.80;99.90;;;;;;5058209;28;20080;-67
2023/08/09 08:23:34;;;;;;;5.10;4.35;;;17.00;99.90;;;;;;5057716;28;20049;-66
2023/08/09 08:26:00;;;;;;;11.00;4.80;;;17.00;99.90;;;;;;5059424;28;20037;-67
2023/08/09 08:28:26;;;;;;;4.95;4.22;;;17.10;99.90;;;;;;5056820;28;20083;-66
2023/08/09 08:30:52;;;;;;;5.97;3.50;;;17.20;99.90;;;;;;5057375;28;20045;-62
2023/08/09 08:33:17;;;;;;;5.65;3.60;;;17.20;99.90;;;;;;5041313;28;20129;-63
2023/08/09 08:35:48;;;;;;;3.72;3.20;;;17.20;99.90;;;;;;5023085;28;20093;-63
2023/08/09 08:38:15;;;;;;;8.95;3.17;;;17.30;99.90;;;;;;5059739;28;20087;-63
2023/08/09 08:40:42;;;;;;;4.00;2.55;;;17.30;99.90;;;;;;5061340;28;20049;-64
2023/08/09 08:43:09;;;;;;;5.90;2.70;;;17.30;99.90;;;;;;5060030;28;20055;-67
2023/08/09 08:45:38;;;;;;;2.55;2.08;;;17.50;99.90;;;;;;5043238;28;20622;-68
2023/08/09 08:48:08;;;;;;;3.95;2.25;;;17.70;99.90;;;;;;5062570;28;20060;-67
2023/08/09 08:50:37;;;;;;;5.25;2.75;;;17.80;99.90;;;;;;5062714;28;20049;-66
2023/08/09 08:53:04;;;;;;;4.70;3.00;;;17.90;99.90;;;;;;5026542;28;20056;-68
2023/08/09 08:55:30;;;;;;;6.20;2.50;;;18.10;99.90;;;;;;5061275;28;20045;-68
2023/08/09 08:57:56;;;;;;;3.03;2.53;;;18.10;99.90;;;;;;5060815;28;20068;-67
2023/08/09 09:00:23;;;;;;;3.13;1.70;;;18.10;99.90;;;;;;5062801;28;20047;-68
2023/08/09 09:02:49;;;;;;;2.47;1.80;;;18.30;99.90;;;;;;5061477;28;20467;-67
2023/08/09 09:05:16;;;;;;;3.80;1.90;;;18.40;99.90;;;;;;5060343;28;20045;-67
2023/08/09 09:07:45;;;;;;;2.50;1.95;;;18.40;99.90;;;;;;5062309;28;20385;-65
2023/08/09 09:10:12;;;;;;;2.33;1.90;;;18.50;99.90;;;;;;5060503;28;20092;-68
2023/08/09 09:12:38;;;;;;;3.22;1.80;;;18.60;99.90;;;;;;5060919;28;20072;-66
2023/08/09 09:15:06;;;;;;;5.53;2.17;;;18.70;99.90;;;;;;5059074;28;20049;-67
2023/08/09 09:17:39;;;;;;;3.50;2.10;;;18.80;99.90;;;;;;5061105;28;20100;-66
2023/08/09 09:20:29;;;;;;;2.22;1.63;;;18.90;99.90;;;;;;5061323;28;20095;-66
2023/08/09 09:22:55;;;;;;;2.55;1.25;;;18.90;99.90;;;;;;5060773;28;20336;-67
2023/08/09 09:25:23;;;;;;;2.65;1.48;;;18.90;99.90;;;;;;5062225;28;20041;-67
2023/08/09 09:27:52;;;;;;;1.95;1.48;;;19.10;99.90;;;;;;5042717;28;20053;-67
2023/08/09 09:30:21;;;;;;;2.00;1.45;;;19.10;99.90;;;;;;5060984;28;20037;-65
2023/08/09 09:32:57;;;;;;;3.22;1.30;;;19.20;99.90;;;;;;5060687;28;20108;-67
2023/08/09 09:35:26;;;;;;;6.13;1.70;;;19.40;99.90;;;;;;5061049;28;20037;-64
2023/08/09 09:37:53;;;;;;;2.22;1.42;;;19.00;99.90;;;;;;5060768;28;20114;-62
2023/08/09 09:40:31;;;;;;;2.35;1.27;;;19.10;99.90;;;;;;5060091;28;20056;-64
2023/08/09 09:42:58;;;;;;;7.18;1.60;;;18.90;99.90;;;;;;5060078;28;20045;-63
2023/08/09 09:45:26;;;;;;;3.55;1.67;;;19.20;99.90;;;;;;5059495;28;20116;-63
2023/08/09 09:47:54;;;;;;;2.30;1.33;;;19.20;99.90;;;;;;5043386;28;20143;-62
2023/08/09 09:50:25;;;;;;;4.40;1.52;;;19.20;99.90;;;;;;5061055;28;20063;-63
2023/08/09 09:52:54;;;;;;;4.88;1.13;;;19.20;99.90;;;;;;5060152;28;20088;-64
2023/08/09 09:55:25;;;;;;;3.72;1.17;;;19.20;99.90;;;;;;5060270;28;20044;-63
2023/08/09 09:57:58;;;;;;;1.48;1.05;;;19.40;99.90;;;;;;5041499;28;20044;-63
2023/08/09 10:00:27;;;;;;;4.65;1.05;;;19.30;99.90;;;;;;5061564;28;20902;-64
2023/08/09 10:02:54;;;;;;;1.00;0.90;;;19.10;99.90;;;;;;5058918;28;20142;-63
2023/08/09 10:05:24;;;;;;;4.25;1.17;;;18.90;99.90;;;;;;5060578;28;20052;-63
2023/08/09 10:07:50;;;;;;;2.45;1.23;;;19.00;99.90;;;;;;5059911;28;20041;-62
2023/08/09 10:10:17;;;;;;;1.67;1.10;;;19.10;99.90;;;;;;5059360;28;20055;-63
2023/08/09 10:13:04;;;;;;;1.33;1.13;;;19.20;99.90;;;;;;5060015;28;20037;-62
2023/08/09 10:15:44;;;;;;;2.75;1.02;;;19.30;99.90;;;;;;5025580;28;20112;-63
2023/08/09 10:18:35;;;;;;;2.17;1.30;;;19.10;99.90;;;;;;5060530;28;20052;-63
2023/08/09 10:21:03;;;;;;;1.55;0.90;;;19.10;99.90;;;;;;5052807;28;20061;-63
2023/08/09 10:23:29;;;;;;;3.50;1.10;;;19.10;99.90;;;;;;5059666;28;20107;-64
2023/08/09 10:25:56;;;;;;;4.20;1.30;;;19.00;99.90;;;;;;5043131;28;20439;-64
2023/08/09 10:28:42;;;;;;;2.22;1.10;;;19.00;99.90;;;;;;5058367;28;20072;-63
2023/08/09 10:31:07;;;;;;;2.05;1.10;;;19.00;99.90;;;;;;5059717;28;20049;-64
2023/08/09 10:33:33;;;;;;;4.47;1.25;;;18.90;99.90;;;;;;5042810;28;20051;-62
2023/08/09 10:35:59;;;;;;;4.22;1.15;;;19.00;99.90;;;;;;5058774;28;20128;-64
2023/08/09 10:38:31;;;;;;;2.97;1.20;;;19.00;99.90;;;;;;5059230;28;20049;-63
2023/08/09 10:40:57;;;;;;;2.33;1.23;;;19.00;99.90;;;;;;5057388;28;20049;-65
2023/08/09 10:43:25;;;;;;;1.13;1.02;;;18.90;99.90;;;;;;5026194;28;20091;-63
2023/08/09 10:45:53;;;;;;;3.00;0.95;;;18.90;99.90;;;;;;5058018;28;20048;-65
2023/08/09 10:48:24;;;;;;;3.50;1.23;;;19.00;99.90;;;;;;5059306;28;20151;-63
2023/08/09 10:51:18;;;;;;;1.17;0.85;;;19.00;99.90;;;;;;5042351;28;20052;-66
2023/08/09 10:54:04;;;;;;;1.95;0.90;;;19.00;99.90;;;;;;5057025;28;20051;-64
2023/08/09 10:56:46;;;;;;;3.00;1.10;;;18.90;99.90;;;;;;5059661;28;20080;-68
2023/08/09 10:59:24;;;;;;;3.20;1.20;;;19.20;99.90;;;;;;5058788;28;20049;-67
2023/08/09 11:01:51;;;;;;;5.25;1.13;;;19.30;99.90;;;;;;5057723;28;20112;-68
2023/08/09 11:04:18;;;;;;;2.45;1.02;;;19.40;99.90;;;;;;5060291;28;20101;-68
2023/08/09 11:06:49;;;;;;;2.67;1.00;;;19.60;99.90;;;;;;5056868;28;20053;-68
2023/08/09 11:09:17;;;;;;;2.15;0.95;;;19.60;99.90;;;;;;5059699;28;20142;-70
2023/08/09 11:11:46;;;;;;;1.52;1.10;;;19.70;99.90;;;;;;5058337;28;20049;-69
2023/08/09 11:14:15;;;;;;;2.45;0.80;;;19.80;99.90;;;;;;5056453;28;20049;-69
2023/08/09 11:16:41;;;;;;;4.15;1.00;;;19.80;99.90;;;;;;5059720;28;20100;-68
2023/08/09 11:19:09;;;;;;;2.20;0.88;;;20.00;99.90;;;;;;5056220;28;20057;-74
2023/08/09 11:21:53;;;;;;;1.55;0.82;;;20.00;99.90;;;;;;5057744;28;20044;-69
2023/08/09 11:24:20;;;;;;;4.63;1.08;;;20.00;99.90;;;;;;5058605;28;20053;-68
2023/08/09 11:26:53;;;;;;;1.95;0.95;;;20.00;99.90;;;;;;5040266;28;20045;-69
2023/08/09 11:29:20;;;;;;;4.28;1.17;;;20.00;99.90;;;;;;5059457;28;20124;-70
2023/08/09 11:31:50;;;;;;;4.68;1.00;;;20.10;99.90;;;;;;5056164;28;20080;-70
2023/08/09 11:34:18;;;;;;;2.10;1.00;;;20.10;99.90;;;;;;5041160;28;20095;-69
2023/08/09 11:36:46;;;;;;;1.33;1.00;;;20.20;99.90;;;;;;5057404;28;20044;-68
2023/08/09 11:39:15;;;;;;;1.58;1.00;;;20.00;99.90;;;;;;5041303;28;20051;-70
2023/08/09 11:41:53;;;;;;;5.65;1.20;;;20.20;99.90;;;;;;5040755;28;20045;-69
2023/08/09 11:44:24;;;;;;;1.67;1.00;;;20.20;99.90;;;;;;5056178;28;20135;-68
2023/08/09 11:46:53;;;;;;;1.77;1.00;;;20.30;99.90;;;;;;5057852;28;20512;-69
2023/08/09 11:49:27;;;;;;;4.45;1.15;;;20.30;99.90;;;;;;5056169;28;20049;-69
2023/08/09 11:51:54;;;;;;;5.20;1.00;;;20.20;99.90;;;;;;5041263;28;20051;-69
2023/08/09 11:54:20;;;;;;;2.40;1.00;;;20.20;99.90;;;;;;5056943;28;20071;-68
2023/08/09 11:56:46;;;;;;;3.67;1.02;;;20.10;99.90;;;;;;5040169;28;20041;-71
2023/08/09 11:59:17;;;;;;;4.55;1.00;;;20.10;99.90;;;;;;5058894;28;20052;-69
2023/08/09 12:01:49;;;;;;;2.20;1.00;;;20.10;99.90;;;;;;5057309;28;20075;-68
2023/08/09 12:04:20;;;;;;;1.42;1.00;;;20.10;99.90;;;;;;5059254;28;20061;-69
2023/08/09 12:06:55;;;;;;;2.35;1.15;;;20.10;99.90;;;;;;5063692;28;20041;-68
2023/08/09 12:09:31;;;;;;;3.42;1.10;;;20.20;99.90;;;;;;5078674;28;20044;-69
2023/08/09 12:12:42;;;;;;;4.03;1.30;;;20.30;99.90;;;;;;5062648;28;20127;-69
2023/08/09 12:15:10;;;;;;;3.58;1.40;;;20.40;99.90;;;;;;5067189;28;20507;-64
2023/08/09 12:17:36;;;;;;;2.28;1.30;;;20.30;99.90;;;;;;5081977;28;20100;-70
2023/08/09 12:20:09;;;;;;;4.47;0.98;;;20.30;99.90;;;;;;5081976;28;20071;-70
2023/08/09 12:22:36;;;;;;;2.25;1.30;;;20.30;99.90;;;;;;5080534;28;20085;-70
2023/08/09 12:25:02;;;;;;;1.95;1.17;;;20.30;99.90;;;;;;5081325;28;20379;-69
2023/08/09 12:27:28;;;;;;;2.20;1.00;;;20.50;99.90;;;;;;5079396;28;20040;-70
2023/08/09 12:29:54;;;;;;;3.90;1.33;;;20.60;99.90;;;;;;5081291;28;20079;-69
2023/08/09 12:32:20;;;;;;;2.30;1.00;;;20.70;99.90;;;;;;5062599;28;20099;-71
2023/08/09 12:34:50;;;;;;;2.97;1.42;;;20.80;99.90;;;;;;5081110;28;20074;-71
2023/08/09 12:37:16;;;;;;;1.35;0.90;;;20.70;99.90;;;;;;5080753;28;20040;-70
2023/08/09 12:39:42;;;;;;;4.45;1.00;;;20.60;99.90;;;;;;5080274;28;20133;-69
2023/08/09 12:42:07;;;;;;;1.40;1.20;;;20.70;99.90;;;;;;5081287;28;20084;-70
2023/08/09 12:44:34;;;;;;;2.55;1.00;;;20.70;99.90;;;;;;5079194;28;20040;-69